Time;durP1;ratioP1;P1;durP2;ratioP2;P2;SDS_P1;SDS_P2;PMS_P1;PMS_P2;Temp;Humidity;BMP_temperature;BMP_pressure;BME280_temperature;BME280_humidity;BME280_pressure;Samples;Min_cycle;Max_cycle;Signal;HPM_P1;HPM_P2
2023/01/01 00:02:25;;;;;;;140.00;36.23;;;;;;;;;;6030832;23;20220;-90
2023/01/01 03:35:18;;;;;;;135.07;35.07;;;;;;;;;;6185075;22;1563086;-87
2023/01/01 03:38:27;;;;;;;147.70;32.30;;;;;;;;;;6222599;23;20237;-89
2023/01/01 04:45:55;;;;;;;83.83;24.90;;;;;;;;;;6118618;23;20243;-90
2023/01/01 04:49:00;;;;;;;67.63;23.40;;;;;;;;;;6165387;23;20196;-86
2023/01/01 04:52:06;;;;;;;63.73;24.13;;;;;;;;;;6147918;23;20181;-89
2023/01/01 04:55:11;;;;;;;86.67;25.63;;;;;;;;;;6149904;23;20168;-87
2023/01/01 04:58:16;;;;;;;73.47;25.90;;;;;;;;;;6149710;23;20171;-87
2023/01/01 05:05:14;;;;;;;78.43;26.87;;;;;;;;;;6148950;23;20169;-89
2023/01/01 05:08:19;;;;;;;98.63;26.63;;;;;;;;;;6149570;23;20212;-89
2023/01/01 05:11:25;;;;;;;70.13;25.83;;;;;;;;;;6150494;23;20168;-88
2023/01/01 05:14:31;;;;;;;95.73;27.03;;;;;;;;;;6148678;23;20609;-90
2023/01/01 05:17:36;;;;;;;84.23;24.40;;;;;;;;;;6150524;23;20188;-86
2023/01/01 05:20:43;;;;;;;128.17;23.70;;;;;;;;;;6150086;23;20175;-88
2023/01/01 05:23:54;;;;;;;106.10;23.43;;;;;;;;;;6151229;23;20221;-89
2023/01/01 05:26:59;;;;;;;112.13;26.10;;;;;;;;;;6149069;23;20165;-87
2023/01/01 05:30:04;;;;;;;71.53;23.20;;;;;;;;;;6149031;23;20205;-86
2023/01/01 05:33:12;;;;;;;73.47;22.33;;;;;;;;;;6150253;23;20304;-85
2023/01/01 05:36:19;;;;;;;86.87;20.57;;;;;;;;;;6149724;23;20172;-88
2023/01/01 05:39:25;;;;;;;44.93;19.70;;;;;;;;;;6151582;23;20514;-85
2023/01/01 05:42:30;;;;;;;61.03;19.27;;;;;;;;;;6150725;23;20532;-88
2023/01/01 05:45:36;;;;;;;65.23;20.37;;;;;;;;;;6149853;23;20173;-88
2023/01/01 05:48:41;;;;;;;52.90;19.27;;;;;;;;;;6149621;23;20196;-88
2023/01/01 05:51:47;;;;;;;41.20;18.07;;;;;;;;;;6149501;23;20287;-89
2023/01/01 05:54:53;;;;;;;31.73;17.47;;;;;;;;;;6149592;23;20599;-90
2023/01/01 05:57:58;;;;;;;42.90;17.70;;;;;;;;;;6150363;23;20172;-89
2023/01/01 06:01:07;;;;;;;63.40;19.27;;;;;;;;;;6150330;23;20237;-89
2023/01/01 06:04:12;;;;;;;79.67;19.97;;;;;;;;;;6147085;23;20181;-87
2023/01/01 06:07:18;;;;;;;56.13;18.77;;;;;;;;;;6150073;23;20219;-90
2023/01/01 06:10:23;;;;;;;54.70;17.67;;;;;;;;;;6150139;23;20277;-87
2023/01/01 06:13:30;;;;;;;66.83;17.70;;;;;;;;;;6168015;23;20608;-88
2023/01/01 06:16:35;;;;;;;66.63;18.60;;;;;;;;;;6148923;23;20200;-91
2023/01/01 06:19:40;;;;;;;50.60;18.30;;;;;;;;;;6147771;23;20176;-90
2023/01/01 06:22:48;;;;;;;62.70;19.20;;;;;;;;;;6149571;23;20173;-90
2023/01/01 06:26:22;;;;;;;98.97;20.07;;;;;;;;;;6148191;23;20195;-90
2023/01/01 06:29:27;;;;;;;56.80;20.50;;;;;;;;;;6165299;23;20216;-90
2023/01/01 06:32:31;;;;;;;94.20;20.63;;;;;;;;;;6147513;23;20471;-89
2023/01/01 06:35:37;;;;;;;84.17;20.27;;;;;;;;;;6147432;23;20184;-88
2023/01/01 06:38:45;;;;;;;74.97;20.47;;;;;;;;;;6148745;23;20500;-90
2023/01/01 06:41:50;;;;;;;99.77;21.60;;;;;;;;;;6147751;23;20176;-90
2023/01/01 06:44:56;;;;;;;97.13;22.97;;;;;;;;;;6147140;23;20177;-91
2023/01/01 06:48:01;;;;;;;162.43;22.10;;;;;;;;;;6134139;23;20676;-87
2023/01/01 06:51:07;;;;;;;143.57;22.50;;;;;;;;;;6136665;23;20173;-90
2023/01/01 06:54:14;;;;;;;133.20;22.63;;;;;;;;;;6134765;23;20172;-89
2023/01/01 06:57:19;;;;;;;49.50;21.17;;;;;;;;;;6137074;23;20176;-89
2023/01/01 07:00:24;;;;;;;153.50;22.07;;;;;;;;;;6136274;23;20173;-88
2023/01/01 07:03:30;;;;;;;114.83;20.67;;;;;;;;;;6136701;23;20177;-89
2023/01/01 07:06:35;;;;;;;105.37;19.80;;;;;;;;;;6133990;23;20176;-90
2023/01/01 07:09:42;;;;;;;61.83;18.20;;;;;;;;;;6135724;23;20656;-89
2023/01/01 07:12:47;;;;;;;107.77;18.37;;;;;;;;;;6134852;23;20177;-87
2023/01/01 07:15:52;;;;;;;62.50;17.73;;;;;;;;;;6135576;23;20213;-91
2023/01/01 07:18:57;;;;;;;41.60;17.50;;;;;;;;;;6133614;23;20165;-88
2023/01/01 07:22:02;;;;;;;34.83;17.33;;;;;;;;;;6134444;23;20173;-89
2023/01/01 07:25:14;;;;;;;31.73;16.70;;;;;;;;;;6135121;23;20225;-90
2023/01/01 07:28:19;;;;;;;42.27;16.80;;;;;;;;;;6135221;23;20653;-88
2023/01/01 07:31:24;;;;;;;41.17;15.67;;;;;;;;;;6135803;23;20274;-88
2023/01/01 07:34:29;;;;;;;31.53;16.17;;;;;;;;;;6134998;23;20636;-87
2023/01/01 07:37:35;;;;;;;50.20;16.80;;;;;;;;;;6135291;23;20185;-89
2023/01/01 07:40:42;;;;;;;59.77;18.33;;;;;;;;;;6135908;23;20225;-90
2023/01/01 07:43:48;;;;;;;53.63;16.77;;;;;;;;;;6136482;23;20169;-89
2023/01/01 07:47:01;;;;;;;68.97;17.23;;;;;;;;;;6136927;23;20671;-89
2023/01/01 07:50:07;;;;;;;44.43;16.37;;;;;;;;;;6136980;23;20169;-88
2023/01/01 07:53:12;;;;;;;58.80;19.03;;;;;;;;;;6135626;23;20185;-90
2023/01/01 07:56:20;;;;;;;81.33;15.30;;;;;;;;;;6136308;23;20177;-88
2023/01/01 07:59:28;;;;;;;73.73;16.53;;;;;;;;;;6135013;23;20174;-92
2023/01/01 08:02:34;;;;;;;77.83;15.87;;;;;;;;;;6135156;23;20177;-89
2023/01/01 08:05:39;;;;;;;50.00;16.47;;;;;;;;;;6135259;23;20173;-87
2023/01/01 08:08:44;;;;;;;45.17;16.10;;;;;;;;;;6135139;23;20237;-88
2023/01/01 08:11:52;;;;;;;116.27;17.60;;;;;;;;;;6135062;23;20246;-91
2023/01/01 08:14:57;;;;;;;78.73;16.97;;;;;;;;;;6135596;23;20168;-89
2023/01/01 08:18:03;;;;;;;86.87;17.53;;;;;;;;;;6135118;23;20185;-91
2023/01/01 08:21:08;;;;;;;65.53;15.93;;;;;;;;;;6137105;23;20217;-89
2023/01/01 08:24:14;;;;;;;52.03;14.53;;;;;;;;;;6135366;23;20180;-90
2023/01/01 08:27:20;;;;;;;76.20;15.57;;;;;;;;;;6136711;23;20301;-89
2023/01/01 08:30:25;;;;;;;116.17;15.63;;;;;;;;;;6138895;23;20655;-89
2023/01/01 08:33:30;;;;;;;167.33;16.50;;;;;;;;;;6136647;23;20213;-90
2023/01/01 08:36:35;;;;;;;191.43;16.80;;;;;;;;;;6136876;23;20168;-89
2023/01/01 08:39:40;;;;;;;94.20;15.80;;;;;;;;;;6137326;23;20238;-89
2023/01/01 08:42:47;;;;;;;140.67;15.27;;;;;;;;;;6136232;23;20169;-89
2023/01/01 08:45:52;;;;;;;162.30;16.23;;;;;;;;;;6136706;23;20308;-91
2023/01/01 08:48:57;;;;;;;81.63;14.27;;;;;;;;;;6120023;23;20189;-91
2023/01/01 08:52:02;;;;;;;108.33;14.83;;;;;;;;;;6118470;23;20176;-91
2023/01/01 08:55:08;;;;;;;105.13;14.33;;;;;;;;;;6118978;23;20200;-89
2023/01/01 08:58:16;;;;;;;107.00;14.67;;;;;;;;;;6120268;23;20234;-89
2023/01/01 09:01:21;;;;;;;69.30;11.93;;;;;;;;;;6122172;23;20173;-91
2023/01/01 09:04:27;;;;;;;99.57;14.37;;;;;;;;;;6122228;23;20177;-88
2023/01/01 09:07:32;;;;;;;69.40;13.83;;;;;;;;;;6122367;23;20173;-89
2023/01/01 09:10:37;;;;;;;74.47;13.83;;;;;;;;;;6121315;23;20169;-90
2023/01/01 09:13:46;;;;;;;66.20;12.70;;;;;;;;;;6121604;23;20302;-90
2023/01/01 09:16:51;;;;;;;78.67;12.67;;;;;;;;;;6120163;23;20160;-90
2023/01/01 09:19:56;;;;;;;61.47;13.00;;;;;;;;;;6120626;23;20236;-89
2023/01/01 09:23:01;;;;;;;82.83;12.87;;;;;;;;;;6120347;23;20173;-89
2023/01/01 09:26:07;;;;;;;26.03;12.10;;;;;;;;;;6120021;23;20178;-89
2023/01/01 09:29:17;;;;;;;45.20;11.77;;;;;;;;;;6127054;23;20197;-88
2023/01/01 09:32:22;;;;;;;59.37;11.50;;;;;;;;;;6126944;23;20231;-87
2023/01/01 09:35:28;;;;;;;52.83;11.70;;;;;;;;;;6122210;23;20168;-87
2023/01/01 09:38:33;;;;;;;68.37;12.93;;;;;;;;;;6121236;23;20222;-90
2023/01/01 09:41:44;;;;;;;82.40;13.30;;;;;;;;;;6119723;23;20629;-90
2023/01/01 09:45:00;;;;;;;51.00;12.13;;;;;;;;;;6117979;23;20261;-88
2023/01/01 09:48:07;;;;;;;39.37;13.20;;;;;;;;;;6118696;23;20173;-88
2023/01/01 09:51:16;;;;;;;53.73;13.70;;;;;;;;;;6117938;23;20600;-91
2023/01/01 09:54:26;;;;;;;42.13;13.17;;;;;;;;;;6116801;23;20169;-88
2023/01/01 09:57:32;;;;;;;29.77;13.33;;;;;;;;;;6117502;23;20206;-91
2023/01/01 10:00:40;;;;;;;27.43;13.70;;;;;;;;;;6115997;23;20172;-90
2023/01/01 10:03:48;;;;;;;31.67;13.97;;;;;;;;;;6118030;23;20156;-90
2023/01/01 10:06:58;;;;;;;24.70;12.63;;;;;;;;;;6118461;23;20177;-91
2023/01/01 10:10:06;;;;;;;24.90;13.30;;;;;;;;;;6118419;23;20308;-88
2023/01/01 10:13:19;;;;;;;21.95;12.18;;;;;;;;;;6117918;23;20173;-90
2023/01/01 10:16:29;;;;;;;21.07;11.97;;;;;;;;;;6117739;23;20172;-90
2023/01/01 10:19:36;;;;;;;25.40;13.23;;;;;;;;;;6118214;23;20173;-87
2023/01/01 10:22:44;;;;;;;20.83;11.97;;;;;;;;;;6119744;23;20185;-89
2023/01/01 10:25:49;;;;;;;25.23;13.37;;;;;;;;;;6119268;23;20173;-90
2023/01/01 10:29:00;;;;;;;23.90;13.30;;;;;;;;;;6118759;23;20189;-89
2023/01/01 10:32:15;;;;;;;21.33;12.43;;;;;;;;;;6118477;23;20177;-90
2023/01/01 10:35:29;;;;;;;20.67;11.97;;;;;;;;;;6118251;23;20172;-88
2023/01/01 10:38:36;;;;;;;25.37;13.93;;;;;;;;;;6118425;23;20201;-88
2023/01/01 10:41:42;;;;;;;117.82;52.50;;;;;;;;;;6120239;23;20209;-90
2023/01/01 10:44:47;;;;;;;51.50;26.47;;;;;;;;;;6116787;23;20625;-90
2023/01/01 10:48:14;;;;;;;35.40;17.15;;;;;;;;;;6144911;23;20188;-89
2023/01/01 10:51:23;;;;;;;33.30;16.38;;;;;;;;;;6147945;23;20182;-87
2023/01/01 10:54:36;;;;;;;23.73;12.93;;;;;;;;;;6148503;23;20173;-91
2023/01/01 10:57:41;;;;;;;25.57;12.50;;;;;;;;;;6146768;23;20301;-90
2023/01/01 11:00:57;;;;;;;23.08;13.55;;;;;;;;;;6147732;23;20143;-91
2023/01/01 11:04:18;;;;;;;28.30;15.23;;;;;;;;;;6146877;23;20173;-89
2023/01/01 11:07:29;;;;;;;22.33;13.77;;;;;;;;;;6148901;23;20169;-90
2023/01/01 11:10:34;;;;;;;22.73;13.55;;;;;;;;;;6149138;23;20200;-88
2023/01/01 11:13:41;;;;;;;22.70;12.07;;;;;;;;;;6147072;23;20169;-88
2023/01/01 11:16:46;;;;;;;20.40;11.32;;;;;;;;;;6150954;23;20510;-88
2023/01/01 11:19:53;;;;;;;22.92;13.10;;;;;;;;;;6150835;23;20171;-90
2023/01/01 11:22:58;;;;;;;24.05;12.82;;;;;;;;;;6152919;23;20168;-88
2023/01/01 11:26:06;;;;;;;22.00;11.95;;;;;;;;;;6156784;23;20184;-90
2023/01/01 11:29:21;;;;;;;23.13;12.73;;;;;;;;;;6151797;23;20191;-89
2023/01/01 11:32:31;;;;;;;20.98;11.88;;;;;;;;;;6152210;23;20185;-89
2023/01/01 11:35:50;;;;;;;24.30;12.80;;;;;;;;;;6151493;23;20172;-91
2023/01/01 11:39:06;;;;;;;19.73;11.77;;;;;;;;;;6151087;23;20615;-89
2023/01/01 11:42:18;;;;;;;20.95;11.98;;;;;;;;;;6151243;23;20168;-90
2023/01/01 11:45:24;;;;;;;19.92;11.63;;;;;;;;;;6150131;23;20192;-91
2023/01/01 11:48:31;;;;;;;21.90;12.38;;;;;;;;;;6133320;23;20236;-88
2023/01/01 11:51:39;;;;;;;24.63;12.50;;;;;;;;;;6149490;23;20624;-90
2023/01/01 11:54:45;;;;;;;26.00;12.73;;;;;;;;;;6152054;23;20224;-90
2023/01/01 11:57:55;;;;;;;24.15;12.57;;;;;;;;;;6150652;23;20200;-87
2023/01/01 12:01:02;;;;;;;22.25;12.85;;;;;;;;;;6151817;23;20176;-90
2023/01/01 12:04:10;;;;;;;22.27;12.73;;;;;;;;;;6152040;23;20168;-90
2023/01/01 12:07:18;;;;;;;24.25;12.30;;;;;;;;;;6150916;23;20240;-89
2023/01/01 12:10:25;;;;;;;25.42;13.05;;;;;;;;;;6150724;23;20236;-88
2023/01/01 12:13:34;;;;;;;26.60;13.02;;;;;;;;;;6149509;23;20168;-90
2023/01/01 12:16:46;;;;;;;23.52;12.35;;;;;;;;;;6149869;23;20213;-89
2023/01/01 12:19:56;;;;;;;22.27;12.82;;;;;;;;;;6150678;23;20180;-90
2023/01/01 12:23:05;;;;;;;22.55;12.93;;;;;;;;;;6150354;23;20168;-87
2023/01/01 12:26:16;;;;;;;24.75;14.15;;;;;;;;;;6150789;23;20168;-90
2023/01/01 12:29:29;;;;;;;27.67;14.02;;;;;;;;;;6149589;23;20196;-88
2023/01/01 12:32:42;;;;;;;28.17;14.52;;;;;;;;;;6149551;23;20166;-88
2023/01/01 12:36:01;;;;;;;24.83;13.77;;;;;;;;;;6149459;23;20173;-88
2023/01/01 12:39:42;;;;;;;27.73;15.93;;;;;;;;;;6148249;23;20196;-88
2023/01/01 12:42:55;;;;;;;29.13;15.20;;;;;;;;;;6149468;23;20168;-88
2023/01/01 12:46:19;;;;;;;26.02;14.90;;;;;;;;;;6146370;23;20250;-89
2023/01/01 12:49:31;;;;;;;31.52;14.38;;;;;;;;;;6120780;23;20193;-89
2023/01/01 12:52:41;;;;;;;29.73;15.35;;;;;;;;;;6119053;23;20146;-88
2023/01/01 12:56:04;;;;;;;34.33;15.52;;;;;;;;;;6119338;23;20173;-89
2023/01/01 12:59:12;;;;;;;26.25;14.40;;;;;;;;;;6119776;23;20218;-90
2023/01/01 13:02:19;;;;;;;25.15;14.50;;;;;;;;;;6117468;23;20506;-89
2023/01/01 13:05:29;;;;;;;24.27;12.77;;;;;;;;;;6118573;23;20181;-89
2023/01/01 13:08:36;;;;;;;26.58;13.93;;;;;;;;;;6117940;23;20502;-90
2023/01/01 13:11:43;;;;;;;25.00;13.48;;;;;;;;;;6119104;23;20168;-89
2023/01/01 13:14:50;;;;;;;23.52;13.55;;;;;;;;;;6118783;23;20216;-88
2023/01/01 13:17:55;;;;;;;25.58;13.27;;;;;;;;;;6120196;23;20221;-89
2023/01/01 13:21:04;;;;;;;24.02;12.35;;;;;;;;;;6120920;23;20506;-89
2023/01/01 13:24:20;;;;;;;23.38;11.93;;;;;;;;;;6118699;23;20244;-88
2023/01/01 13:27:40;;;;;;;22.92;11.15;;;;;;;;;;6118786;23;20177;-90
2023/01/01 13:30:51;;;;;;;21.98;11.13;;;;;;;;;;6120237;23;20781;-89
2023/01/01 13:34:12;;;;;;;25.05;12.23;;;;;;;;;;6119013;23;20169;-90
2023/01/01 13:37:27;;;;;;;25.48;12.35;;;;;;;;;;6119188;23;20190;-91
2023/01/01 13:40:34;;;;;;;18.17;10.45;;;;;;;;;;6118104;23;20165;-89
2023/01/01 13:43:40;;;;;;;24.77;11.00;;;;;;;;;;6119712;23;20492;-92
2023/01/01 13:46:52;;;;;;;22.88;11.50;;;;;;;;;;6118565;23;20188;-90
2023/01/01 13:50:15;;;;;;;21.02;10.48;;;;;;;;;;6135744;23;20196;-89
2023/01/01 13:53:41;;;;;;;18.55;10.65;;;;;;;;;;6136764;23;20193;-90
2023/01/01 13:56:48;;;;;;;26.05;11.57;;;;;;;;;;6137768;23;20176;-89
2023/01/01 14:00:01;;;;;;;23.40;11.80;;;;;;;;;;6136008;23;20173;-88
2023/01/01 14:03:12;;;;;;;22.58;11.05;;;;;;;;;;6137057;23;20174;-87
2023/01/01 14:06:20;;;;;;;24.70;11.73;;;;;;;;;;6136548;23;20168;-89
2023/01/01 14:09:26;;;;;;;25.13;13.05;;;;;;;;;;6137355;23;20173;-90
2023/01/01 14:12:31;;;;;;;24.45;12.23;;;;;;;;;;6137148;23;20229;-89
2023/01/01 14:15:37;;;;;;;28.83;13.80;;;;;;;;;;6136639;23;20180;-88
2023/01/01 14:18:45;;;;;;;31.38;13.75;;;;;;;;;;6136096;23;20166;-90
2023/01/01 14:21:50;;;;;;;25.92;13.68;;;;;;;;;;6136452;23;20165;-91
2023/01/01 14:24:57;;;;;;;25.98;12.98;;;;;;;;;;6137428;23;20166;-89
2023/01/01 14:28:03;;;;;;;32.20;13.63;;;;;;;;;;6136921;23;20492;-89
2023/01/01 14:31:11;;;;;;;24.88;13.27;;;;;;;;;;6135548;23;20196;-90
2023/01/01 14:34:27;;;;;;;23.52;13.00;;;;;;;;;;6135189;23;20173;-90
2023/01/01 14:37:32;;;;;;;24.38;12.95;;;;;;;;;;6134969;23;20669;-88
2023/01/01 14:40:39;;;;;;;26.90;13.68;;;;;;;;;;6135388;23;20172;-88
2023/01/01 14:43:46;;;;;;;26.65;13.02;;;;;;;;;;6136122;23;20601;-89
2023/01/01 14:46:59;;;;;;;26.23;12.73;;;;;;;;;;6137221;23;20213;-88
2023/01/01 14:50:12;;;;;;;25.58;12.70;;;;;;;;;;6137926;23;20267;-89
2023/01/01 14:53:20;;;;;;;25.27;13.77;;;;;;;;;;6135460;23;20932;-88
2023/01/01 14:56:26;;;;;;;28.25;13.63;;;;;;;;;;6136015;23;20484;-87
2023/01/01 14:59:34;;;;;;;31.45;13.65;;;;;;;;;;6135948;23;20217;-89
2023/01/01 15:02:39;;;;;;;27.05;13.00;;;;;;;;;;6135000;23;20177;-88
2023/01/01 15:05:47;;;;;;;25.60;13.35;;;;;;;;;;6136415;23;20173;-88
2023/01/01 15:08:53;;;;;;;26.77;13.80;;;;;;;;;;6137942;23;20511;-91
2023/01/01 15:11:58;;;;;;;29.23;14.88;;;;;;;;;;6136739;23;20248;-89
2023/01/01 15:15:03;;;;;;;31.83;15.38;;;;;;;;;;6136232;23;20193;-88
2023/01/01 15:18:33;;;;;;;31.30;14.65;;;;;;;;;;6139519;23;20173;-89
2023/01/01 15:21:41;;;;;;;29.88;15.32;;;;;;;;;;6135783;23;20213;-91
2023/01/01 15:24:46;;;;;;;37.08;18.10;;;;;;;;;;6134768;23;20705;-90
2023/01/01 15:27:53;;;;;;;40.42;18.75;;;;;;;;;;6136755;23;20169;-90
2023/01/01 15:30:58;;;;;;;38.97;18.23;;;;;;;;;;6134895;23;20553;-90
2023/01/01 15:34:04;;;;;;;37.50;17.83;;;;;;;;;;6136483;23;20176;-91
2023/01/01 15:37:15;;;;;;;38.35;17.75;;;;;;;;;;6135834;23;20177;-90
2023/01/01 15:40:35;;;;;;;37.92;17.52;;;;;;;;;;6134920;23;20177;-89
2023/01/01 15:43:40;;;;;;;34.17;17.65;;;;;;;;;;6136041;23;20173;-91
2023/01/01 15:46:47;;;;;;;38.15;17.05;;;;;;;;;;6137602;23;20405;-87
2023/01/01 15:50:09;;;;;;;33.25;17.17;;;;;;;;;;6138353;23;20509;-89
2023/01/01 15:53:17;;;;;;;39.35;18.42;;;;;;;;;;6137445;23;20682;-89
2023/01/01 15:56:24;;;;;;;46.75;19.95;;;;;;;;;;6139199;23;20244;-89
2023/01/01 15:59:32;;;;;;;41.63;18.63;;;;;;;;;;6137355;23;20173;-91
2023/01/01 16:02:37;;;;;;;42.28;19.77;;;;;;;;;;6138138;23;20493;-91
2023/01/01 16:05:47;;;;;;;50.58;22.17;;;;;;;;;;6136664;23;20173;-89
2023/01/01 16:08:53;;;;;;;44.40;20.83;;;;;;;;;;6136859;23;20179;-88
2023/01/01 16:11:59;;;;;;;39.25;19.55;;;;;;;;;;6137051;23;20196;-93
2023/01/01 16:15:04;;;;;;;41.60;18.83;;;;;;;;;;6137186;23;20184;-89
2023/01/01 16:18:12;;;;;;;36.50;16.77;;;;;;;;;;6138713;23;20233;-92
2023/01/01 16:21:18;;;;;;;35.28;15.95;;;;;;;;;;6138189;23;20177;-90
2023/01/01 16:24:24;;;;;;;31.00;15.30;;;;;;;;;;6138092;23;20173;-90
2023/01/01 16:27:29;;;;;;;35.42;17.50;;;;;;;;;;6138544;23;20169;-91
2023/01/01 16:30:35;;;;;;;38.15;19.33;;;;;;;;;;6134829;23;20237;-89
2023/01/01 16:33:41;;;;;;;29.77;14.98;;;;;;;;;;6135044;23;20198;-90
2023/01/01 16:36:46;;;;;;;32.75;15.15;;;;;;;;;;6139480;23;20173;-90
2023/01/01 16:39:52;;;;;;;31.38;13.95;;;;;;;;;;6138070;23;20223;-91
2023/01/01 16:42:59;;;;;;;29.35;14.35;;;;;;;;;;6139496;23;20173;-90
2023/01/01 16:46:07;;;;;;;29.27;13.82;;;;;;;;;;6138609;23;20196;-89
2023/01/01 16:49:14;;;;;;;28.92;14.40;;;;;;;;;;6121542;23;20152;-91
2023/01/01 16:52:19;;;;;;;28.20;13.73;;;;;;;;;;6123908;23;20744;-88
2023/01/01 16:55:27;;;;;;;35.00;14.93;;;;;;;;;;6122980;23;20240;-90
2023/01/01 16:58:34;;;;;;;29.17;14.17;;;;;;;;;;6123139;23;20233;-91
2023/01/01 17:01:41;;;;;;;35.63;16.77;;;;;;;;;;6122292;23;20217;-88
2023/01/01 17:04:47;;;;;;;42.80;19.65;;;;;;;;;;6124154;23;20169;-89
2023/01/01 17:07:53;;;;;;;41.50;17.57;;;;;;;;;;6124439;23;20177;-88
2023/01/01 17:11:03;;;;;;;38.57;17.00;;;;;;;;;;6123394;23;20196;-89
2023/01/01 17:14:11;;;;;;;36.58;16.65;;;;;;;;;;6122956;23;20172;-88
2023/01/01 17:17:16;;;;;;;38.17;17.63;;;;;;;;;;6123984;23;20205;-90
2023/01/01 17:20:22;;;;;;;35.55;16.02;;;;;;;;;;6123320;23;20198;-89
2023/01/01 17:23:27;;;;;;;33.67;16.63;;;;;;;;;;6121546;23;20261;-90
2023/01/01 17:26:33;;;;;;;36.40;16.43;;;;;;;;;;6123012;23;20152;-88
2023/01/01 17:29:39;;;;;;;30.45;14.05;;;;;;;;;;6124230;23;20173;-92
2023/01/01 17:32:44;;;;;;;26.53;12.70;;;;;;;;;;6122768;23;20177;-90
2023/01/01 17:35:49;;;;;;;27.10;12.97;;;;;;;;;;6120938;23;20168;-87
2023/01/01 17:38:54;;;;;;;25.43;11.83;;;;;;;;;;6121888;23;20168;-88
2023/01/01 17:42:01;;;;;;;27.37;12.90;;;;;;;;;;6122286;23;20232;-88
2023/01/01 17:45:11;;;;;;;33.03;13.90;;;;;;;;;;6121809;23;20174;-88
2023/01/01 17:48:17;;;;;;;30.37;13.57;;;;;;;;;;6122695;23;20261;-89
2023/01/01 17:51:24;;;;;;;23.83;12.20;;;;;;;;;;6122094;23;20248;-88
2023/01/01 17:54:35;;;;;;;26.07;13.10;;;;;;;;;;6121085;23;20184;-90
2023/01/01 17:57:41;;;;;;;27.63;13.60;;;;;;;;;;6123584;23;20169;-89
2023/01/01 18:00:46;;;;;;;26.60;13.70;;;;;;;;;;6123469;23;20176;-89
2023/01/01 18:03:53;;;;;;;37.60;14.87;;;;;;;;;;6119593;23;20252;-90
2023/01/01 18:06:58;;;;;;;27.53;13.27;;;;;;;;;;6120504;23;20169;-89
2023/01/01 18:10:03;;;;;;;28.87;13.13;;;;;;;;;;6120142;23;20177;-92
2023/01/01 18:13:10;;;;;;;27.07;13.43;;;;;;;;;;6120065;23;20177;-89
2023/01/01 18:16:16;;;;;;;27.40;13.70;;;;;;;;;;6119306;23;20169;-89
2023/01/01 18:19:21;;;;;;;26.37;13.83;;;;;;;;;;6120777;23;20189;-90
2023/01/01 18:22:26;;;;;;;32.87;15.20;;;;;;;;;;6118501;23;20173;-88
2023/01/01 18:28:53;;;;;;;24.47;11.83;;;;;;;;;;6119779;23;20250;-90
2023/01/01 18:31:58;;;;;;;25.47;12.17;;;;;;;;;;6121518;23;20196;-90
2023/01/01 18:35:03;;;;;;;28.33;13.60;;;;;;;;;;6117874;23;20167;-90
2023/01/01 18:38:15;;;;;;;33.30;16.73;;;;;;;;;;6119681;23;20182;-88
2023/01/01 18:41:28;;;;;;;33.43;16.50;;;;;;;;;;6118904;23;20193;-90
2023/01/01 18:44:36;;;;;;;39.87;18.77;;;;;;;;;;6121184;23;20209;-89
2023/01/01 18:47:44;;;;;;;30.30;14.40;;;;;;;;;;6144294;23;20283;-88
2023/01/01 18:50:49;;;;;;;28.03;14.23;;;;;;;;;;6148871;23;20168;-87
2023/01/01 18:53:56;;;;;;;32.00;14.30;;;;;;;;;;6148569;23;20176;-90
2023/01/01 18:57:06;;;;;;;36.10;15.13;;;;;;;;;;6148814;23;20172;-90
2023/01/01 19:00:21;;;;;;;35.83;16.17;;;;;;;;;;6150073;23;20172;-89
2023/01/01 19:03:27;;;;;;;33.23;15.10;;;;;;;;;;6149086;23;20628;-90
2023/01/01 19:06:33;;;;;;;38.03;16.00;;;;;;;;;;6148393;23;20179;-87
2023/01/01 19:09:38;;;;;;;33.47;16.17;;;;;;;;;;6151553;23;20153;-91
2023/01/01 19:12:44;;;;;;;39.07;17.03;;;;;;;;;;6149311;23;20293;-89
2023/01/01 19:15:51;;;;;;;46.90;19.70;;;;;;;;;;6149673;23;20173;-91
2023/01/01 19:18:58;;;;;;;49.70;20.13;;;;;;;;;;6150325;23;20165;-90
2023/01/01 19:22:16;;;;;;;55.27;20.00;;;;;;;;;;6148832;23;20169;-89
2023/01/01 19:25:35;;;;;;;106.10;20.40;;;;;;;;;;6149298;23;20229;-88
2023/01/01 19:28:41;;;;;;;47.07;19.17;;;;;;;;;;6149711;23;20412;-91
2023/01/01 19:31:49;;;;;;;94.77;19.83;;;;;;;;;;6151368;23;20196;-92
2023/01/01 19:34:55;;;;;;;55.87;18.30;;;;;;;;;;6148237;23;20856;-92
2023/01/01 19:38:00;;;;;;;113.90;17.83;;;;;;;;;;6149010;23;20164;-90
2023/01/01 19:41:05;;;;;;;104.63;16.17;;;;;;;;;;6148400;23;20232;-89
2023/01/01 19:44:10;;;;;;;116.37;16.80;;;;;;;;;;6148436;23;20177;-91
2023/01/01 19:47:18;;;;;;;149.50;15.27;;;;;;;;;;6146917;23;20296;-89
2023/01/01 19:50:24;;;;;;;157.77;15.93;;;;;;;;;;6147739;23;20172;-90
2023/01/01 19:53:29;;;;;;;168.87;19.13;;;;;;;;;;6147285;23;20172;-89
2023/01/01 19:56:34;;;;;;;136.57;26.03;;;;;;;;;;6150002;23;20191;-89
2023/01/01 19:59:39;;;;;;;178.93;42.00;;;;;;;;;;6151204;23;20176;-91
2023/01/01 20:02:46;;;;;;;174.30;42.23;;;;;;;;;;6150261;23;20159;-92
2023/01/01 20:05:52;;;;;;;105.50;29.77;;;;;;;;;;6150330;23;20175;-91
2023/01/01 20:08:57;;;;;;;63.83;16.63;;;;;;;;;;6148525;23;20173;-91
2023/01/01 20:12:02;;;;;;;44.70;13.87;;;;;;;;;;6148800;23;20203;-90
2023/01/01 20:15:07;;;;;;;59.53;15.33;;;;;;;;;;6148031;23;20497;-88
2023/01/01 20:18:15;;;;;;;82.83;16.17;;;;;;;;;;6148906;23;20482;-89
2023/01/01 20:24:43;;;;;;;92.67;20.10;;;;;;;;;;6149534;23;20169;-90
2023/01/01 20:31:11;;;;;;;87.57;15.67;;;;;;;;;;6150406;23;20173;-89
2023/01/01 20:34:18;;;;;;;94.17;15.27;;;;;;;;;;6150580;23;20168;-89
2023/01/01 20:37:39;;;;;;;72.43;14.70;;;;;;;;;;6151066;23;20172;-90
2023/01/01 20:40:44;;;;;;;82.30;15.83;;;;;;;;;;6151006;23;20161;-89
2023/01/01 20:43:54;;;;;;;196.50;17.93;;;;;;;;;;6152886;23;20612;-89
2023/01/01 20:51:21;;;;;;;71.17;14.57;;;;;;;;;;6158129;23;20207;-87
2023/01/01 20:54:26;;;;;;;79.17;15.63;;;;;;;;;;6121106;23;20165;-89
2023/01/01 20:57:31;;;;;;;65.13;14.73;;;;;;;;;;6121933;23;20169;-89
2023/01/01 21:00:36;;;;;;;73.97;15.70;;;;;;;;;;6123736;23;20169;-87
2023/01/01 21:03:42;;;;;;;86.27;17.13;;;;;;;;;;6122874;23;20226;-89
2023/01/01 21:06:49;;;;;;;142.60;17.60;;;;;;;;;;6126477;23;20173;-89
2023/01/01 21:09:54;;;;;;;133.03;20.13;;;;;;;;;;6123631;23;20560;-90
2023/01/01 21:13:00;;;;;;;63.53;19.23;;;;;;;;;;6125370;23;20205;-88
2023/01/01 21:16:13;;;;;;;55.83;15.07;;;;;;;;;;6122871;23;20236;-88
2023/01/01 21:19:21;;;;;;;113.77;16.03;;;;;;;;;;6122971;23;20198;-88
2023/01/01 21:22:28;;;;;;;91.33;14.97;;;;;;;;;;6120398;23;20168;-90
2023/01/01 21:25:36;;;;;;;102.57;14.77;;;;;;;;;;6120109;23;20169;-88
2023/01/01 21:28:43;;;;;;;100.57;16.10;;;;;;;;;;6119509;23;20276;-89
2023/01/01 21:31:50;;;;;;;92.80;14.47;;;;;;;;;;6121648;23;20192;-88
2023/01/01 21:34:56;;;;;;;75.80;14.23;;;;;;;;;;6120251;23;20248;-89
2023/01/01 21:38:04;;;;;;;69.83;13.63;;;;;;;;;;6121456;23;20165;-89
2023/01/01 21:41:13;;;;;;;77.10;14.57;;;;;;;;;;6121304;23;20236;-89
2023/01/01 21:44:18;;;;;;;206.40;20.90;;;;;;;;;;6120863;23;20201;-87
2023/01/01 21:47:24;;;;;;;94.13;18.60;;;;;;;;;;6121121;23;20247;-87
2023/01/01 21:50:29;;;;;;;82.37;14.77;;;;;;;;;;6119971;23;20308;-88
2023/01/01 21:53:42;;;;;;;103.23;17.00;;;;;;;;;;6121201;23;20216;-88
2023/01/01 21:56:50;;;;;;;141.50;18.20;;;;;;;;;;6122382;23;20285;-89
2023/01/01 21:59:57;;;;;;;102.20;15.60;;;;;;;;;;6119554;23;20239;-90
2023/01/01 22:03:11;;;;;;;69.07;14.73;;;;;;;;;;6118716;23;20168;-91
2023/01/01 22:06:17;;;;;;;131.37;16.17;;;;;;;;;;6119041;23;20239;-90
2023/01/01 22:09:25;;;;;;;99.57;16.10;;;;;;;;;;6118965;23;20169;-91
2023/01/01 22:12:31;;;;;;;61.03;13.23;;;;;;;;;;6119599;23;20259;-89
2023/01/01 22:15:39;;;;;;;37.23;12.07;;;;;;;;;;6119227;23;20184;-88
2023/01/01 22:18:44;;;;;;;32.17;11.43;;;;;;;;;;6121746;23;20177;-89
2023/01/01 22:21:50;;;;;;;41.83;12.47;;;;;;;;;;6120625;23;20169;-89
2023/01/01 22:24:58;;;;;;;27.60;12.23;;;;;;;;;;6119989;23;20169;-91
2023/01/01 22:28:13;;;;;;;38.27;11.73;;;;;;;;;;6120560;23;20169;-87
2023/01/01 22:31:19;;;;;;;29.80;11.40;;;;;;;;;;6119429;23;20198;-86
2023/01/01 22:34:25;;;;;;;31.30;11.40;;;;;;;;;;6121851;23;20604;-89
2023/01/01 22:37:33;;;;;;;55.30;12.90;;;;;;;;;;6121654;23;20233;-88
2023/01/01 22:40:39;;;;;;;48.40;12.23;;;;;;;;;;6121308;23;20169;-88
2023/01/01 22:43:46;;;;;;;43.90;12.13;;;;;;;;;;6120047;23;20293;-88
2023/01/01 22:46:51;;;;;;;63.83;16.03;;;;;;;;;;6119906;23;20156;-87
2023/01/01 22:49:56;;;;;;;55.13;13.13;;;;;;;;;;6121964;23;20657;-90
2023/01/01 22:53:01;;;;;;;45.13;12.23;;;;;;;;;;6121438;23;20189;-88
2023/01/01 22:56:08;;;;;;;36.63;12.00;;;;;;;;;;6121239;23;20680;-90
2023/01/01 22:59:12;;;;;;;46.67;11.97;;;;;;;;;;6119770;23;20545;-89
2023/01/01 23:02:23;;;;;;;28.53;11.87;;;;;;;;;;6120195;23;20161;-89
2023/01/01 23:05:28;;;;;;;38.57;11.90;;;;;;;;;;6121197;23;20153;-89